Time;durP1;ratioP1;P1;durP2;ratioP2;P2;SDS_P1;SDS_P2;PMS_P1;PMS_P2;Temp;Humidity;BMP_temperature;BMP_pressure;BME280_temperature;BME280_humidity;BME280_pressure;Samples;Min_cycle;Max_cycle;Signal;HPM_P1;HPM_P2
2024/01/17 00:02:00;;;;;;;41.00;28.02;;;2.90;91.50;;;;;;5035218;28;20049;-70
2024/01/17 00:04:27;;;;;;;44.55;29.85;;;2.90;90.90;;;;;;5035394;28;20053;-68
2024/01/17 00:06:57;;;;;;;42.15;28.30;;;2.90;90.80;;;;;;5035188;28;20060;-61
2024/01/17 00:09:23;;;;;;;49.60;31.98;;;2.90;90.50;;;;;;5035010;28;20037;-65
2024/01/17 00:11:52;;;;;;;42.92;28.50;;;3.00;90.00;;;;;;5035018;28;20025;-65
2024/01/17 00:14:17;;;;;;;47.50;31.08;;;3.00;89.70;;;;;;5035089;28;20111;-68
2024/01/17 00:16:43;;;;;;;41.47;28.23;;;3.00;90.30;;;;;;5034975;28;20483;-67
2024/01/17 00:19:09;;;;;;;38.45;26.20;;;3.00;90.50;;;;;;5034782;28;20053;-71
2024/01/17 00:21:35;;;;;;;42.30;28.08;;;3.10;90.20;;;;;;5034821;28;20148;-65
2024/01/17 00:24:01;;;;;;;42.65;27.73;;;3.10;90.00;;;;;;5034583;28;20452;-64
2024/01/17 00:26:26;;;;;;;46.72;30.35;;;3.20;90.10;;;;;;5034356;28;20053;-68
2024/01/17 00:28:52;;;;;;;42.45;27.10;;;3.20;90.40;;;;;;5034610;28;20391;-69
2024/01/17 00:31:18;;;;;;;49.70;33.75;;;3.10;90.50;;;;;;5034519;28;20088;-67
2024/01/17 00:33:43;;;;;;;38.03;26.83;;;3.20;91.00;;;;;;5034517;28;20365;-67
2024/01/17 00:36:10;;;;;;;38.22;25.25;;;3.10;91.40;;;;;;5034553;28;20025;-65
2024/01/17 00:38:36;;;;;;;42.65;28.45;;;3.10;91.30;;;;;;5034572;28;20554;-67
2024/01/17 00:41:05;;;;;;;39.60;27.17;;;3.20;90.70;;;;;;5034334;28;20471;-63
2024/01/17 00:43:32;;;;;;;38.58;26.42;;;3.20;90.40;;;;;;5034515;28;20036;-65
2024/01/17 00:45:58;;;;;;;41.33;28.95;;;3.30;90.40;;;;;;5034383;28;20379;-65
2024/01/17 00:48:24;;;;;;;38.30;25.95;;;3.30;90.10;;;;;;5033113;28;20441;-66
2024/01/17 00:50:50;;;;;;;41.90;28.33;;;3.30;90.10;;;;;;5034389;28;20017;-64
2024/01/17 00:53:15;;;;;;;34.13;23.70;;;3.20;90.90;;;;;;5034256;28;20037;-65
2024/01/17 00:55:41;;;;;;;39.08;27.77;;;3.30;91.00;;;;;;5033859;28;20053;-70
2024/01/17 00:58:07;;;;;;;38.05;26.88;;;3.30;90.80;;;;;;5032933;28;20025;-68
2024/01/17 01:00:32;;;;;;;38.65;28.20;;;3.30;91.20;;;;;;5034169;28;20471;-64
2024/01/17 01:02:58;;;;;;;36.20;27.77;;;3.30;91.60;;;;;;5033932;28;20033;-68
2024/01/17 01:05:24;;;;;;;41.47;27.40;;;3.30;91.20;;;;;;5034058;28;20021;-70
2024/01/17 01:07:51;;;;;;;65.38;41.45;;;3.40;91.20;;;;;;5034043;28;20057;-63
2024/01/17 01:10:16;;;;;;;59.35;39.92;;;3.30;91.60;;;;;;5033743;28;20026;-65
2024/01/17 01:12:42;;;;;;;48.67;32.40;;;3.30;92.20;;;;;;5034237;28;20381;-66
2024/01/17 01:15:08;;;;;;;84.47;53.45;;;3.20;92.30;;;;;;5034185;28;20021;-68
2024/01/17 01:17:34;;;;;;;80.55;52.42;;;3.20;91.90;;;;;;5033926;28;20022;-65
2024/01/17 01:20:00;;;;;;;64.65;43.10;;;3.30;92.40;;;;;;5033487;28;20112;-66
2024/01/17 01:22:25;;;;;;;56.40;37.92;;;3.20;92.90;;;;;;5034186;28;20068;-64
2024/01/17 01:24:51;;;;;;;42.20;30.30;;;3.20;92.90;;;;;;5033544;28;20472;-67
2024/01/17 01:27:17;;;;;;;48.40;33.55;;;3.20;91.80;;;;;;5033608;28;20044;-68
2024/01/17 01:29:42;;;;;;;48.67;33.30;;;3.20;91.90;;;;;;5033569;28;20029;-68
2024/01/17 01:32:08;;;;;;;67.30;41.50;;;3.20;92.10;;;;;;5033603;28;20036;-61
2024/01/17 01:34:34;;;;;;;59.38;38.28;;;3.30;91.80;;;;;;5033597;28;20022;-65
2024/01/17 01:37:00;;;;;;;48.05;33.75;;;3.30;91.40;;;;;;5032785;28;20021;-67
2024/01/17 01:39:26;;;;;;;46.28;31.40;;;3.20;91.60;;;;;;5033353;28;20040;-66
2024/01/17 01:41:52;;;;;;;40.45;29.67;;;3.20;91.80;;;;;;5033739;28;20024;-71
2024/01/17 01:44:18;;;;;;;47.45;31.52;;;3.20;92.00;;;;;;5033715;28;20446;-68
2024/01/17 01:46:46;;;;;;;35.15;25.40;;;3.20;92.00;;;;;;5033481;28;20030;-63
2024/01/17 01:49:15;;;;;;;39.78;26.48;;;3.30;92.00;;;;;;5033702;28;20435;-68
2024/01/17 01:51:44;;;;;;;37.75;26.20;;;3.30;91.20;;;;;;5033655;28;20037;-67
2024/01/17 01:54:13;;;;;;;39.95;26.23;;;3.30;91.40;;;;;;5033330;28;20029;-64
2024/01/17 01:56:40;;;;;;;36.67;26.20;;;3.30;91.10;;;;;;5033448;28;20025;-62
2024/01/17 01:59:06;;;;;;;36.42;24.70;;;3.40;91.20;;;;;;5033557;28;20027;-63
2024/01/17 02:01:33;;;;;;;34.75;24.55;;;3.40;91.50;;;;;;5033439;28;20045;-65
2024/01/17 02:04:00;;;;;;;29.90;22.02;;;3.40;91.30;;;;;;5033228;28;20104;-67
2024/01/17 02:06:30;;;;;;;30.70;21.55;;;3.40;90.70;;;;;;5033239;28;20018;-65
2024/01/17 02:08:57;;;;;;;28.40;20.15;;;3.40;90.50;;;;;;5033086;28;20025;-66
2024/01/17 02:11:23;;;;;;;27.60;19.80;;;3.40;90.00;;;;;;5033002;28;20021;-62
2024/01/17 02:13:50;;;;;;;28.60;19.25;;;3.30;90.30;;;;;;5033393;28;20426;-63
2024/01/17 02:16:17;;;;;;;33.20;23.48;;;3.30;90.20;;;;;;5033546;28;20074;-64
2024/01/17 02:18:43;;;;;;;36.90;24.25;;;3.20;90.80;;;;;;5032948;28;20025;-68
2024/01/17 02:21:12;;;;;;;71.30;47.47;;;3.20;91.20;;;;;;5033211;28;20024;-67
2024/01/17 02:23:37;;;;;;;74.93;49.05;;;3.00;92.50;;;;;;5033056;28;20484;-60
2024/01/17 02:26:03;;;;;;;66.93;44.58;;;2.90;93.40;;;;;;5032963;28;20107;-62
2024/01/17 02:28:30;;;;;;;58.90;40.13;;;2.80;93.80;;;;;;5033050;28;20026;-64
2024/01/17 02:30:57;;;;;;;56.15;38.38;;;2.70;94.20;;;;;;5033434;28;20021;-66
2024/01/17 02:33:23;;;;;;;47.05;33.92;;;2.60;94.60;;;;;;5032988;28;20033;-68
2024/01/17 02:35:49;;;;;;;42.75;30.33;;;2.70;94.50;;;;;;5033060;28;20079;-66
2024/01/17 02:38:15;;;;;;;43.00;29.20;;;2.70;94.00;;;;;;5032923;28;20018;-66
2024/01/17 02:40:40;;;;;;;35.85;25.00;;;2.70;93.60;;;;;;5033074;28;20029;-67
2024/01/17 02:43:06;;;;;;;34.00;23.60;;;2.70;93.30;;;;;;5032930;28;20030;-63
2024/01/17 02:45:32;;;;;;;28.77;20.88;;;2.80;93.50;;;;;;5032927;28;20546;-65
2024/01/17 02:47:58;;;;;;;30.35;20.85;;;2.80;93.20;;;;;;5033986;28;20017;-62
2024/01/17 02:50:24;;;;;;;30.13;21.13;;;2.80;92.80;;;;;;5036550;28;20483;-63
2024/01/17 02:52:52;;;;;;;29.75;21.48;;;2.70;92.90;;;;;;5036296;28;20029;-64
2024/01/17 02:55:19;;;;;;;26.63;19.25;;;2.60;93.30;;;;;;5036851;28;20423;-68
2024/01/17 02:57:45;;;;;;;23.65;16.92;;;2.60;93.90;;;;;;5036413;28;20026;-64
2024/01/17 03:00:11;;;;;;;22.23;16.30;;;2.60;93.90;;;;;;5036596;28;20388;-69
2024/01/17 03:02:37;;;;;;;22.63;16.55;;;2.60;94.30;;;;;;5036480;28;20480;-62
2024/01/17 03:05:05;;;;;;;22.98;16.40;;;2.60;93.50;;;;;;5036370;28;20483;-71
2024/01/17 03:07:31;;;;;;;22.63;16.35;;;2.60;93.70;;;;;;5036138;28;20028;-64
2024/01/17 03:09:57;;;;;;;22.38;16.00;;;2.60;93.50;;;;;;5036429;28;20538;-70
2024/01/17 03:12:23;;;;;;;24.52;16.70;;;2.60;93.90;;;;;;5036258;28;20033;-64
2024/01/17 03:14:49;;;;;;;19.95;15.30;;;2.60;93.90;;;;;;5036816;28;20380;-67
2024/01/17 03:17:16;;;;;;;37.03;24.23;;;2.60;94.10;;;;;;5036161;28;20412;-67
2024/01/17 03:19:47;;;;;;;28.58;19.10;;;2.60;94.30;;;;;;5035704;28;20081;-69
2024/01/17 03:22:15;;;;;;;31.02;20.83;;;2.60;94.40;;;;;;5035977;28;20405;-64
2024/01/17 03:24:41;;;;;;;23.52;17.73;;;2.60;94.50;;;;;;5035978;28;20075;-65
2024/01/17 03:27:07;;;;;;;24.10;17.27;;;2.60;94.10;;;;;;5035824;28;20026;-67
2024/01/17 03:29:32;;;;;;;33.20;23.25;;;2.60;93.80;;;;;;5036026;28;20052;-64
2024/01/17 03:31:58;;;;;;;25.38;19.30;;;2.50;94.10;;;;;;5035766;28;20434;-65
2024/01/17 03:34:24;;;;;;;35.42;22.95;;;2.40;94.80;;;;;;5035957;28;20026;-68
2024/01/17 03:36:50;;;;;;;45.40;30.17;;;2.40;95.00;;;;;;5035642;28;20475;-63
2024/01/17 03:39:15;;;;;;;60.85;37.53;;;2.30;95.40;;;;;;5035764;28;20155;-66
2024/01/17 03:41:41;;;;;;;46.30;30.08;;;2.30;96.50;;;;;;5035678;28;20032;-66
2024/01/17 03:44:07;;;;;;;50.63;31.77;;;2.30;97.20;;;;;;5035822;28;20472;-71
2024/01/17 03:46:32;;;;;;;36.55;26.13;;;2.30;96.90;;;;;;5035687;28;20030;-67
2024/01/17 03:48:59;;;;;;;35.70;24.05;;;2.40;96.10;;;;;;5035904;28;20036;-66
2024/01/17 03:51:25;;;;;;;43.47;28.23;;;2.40;95.40;;;;;;5035211;28;20029;-64
2024/01/17 03:53:51;;;;;;;33.95;23.63;;;2.30;96.10;;;;;;5035270;28;20034;-66
2024/01/17 03:56:17;;;;;;;47.45;30.30;;;2.30;96.40;;;;;;5035391;28;20104;-67
2024/01/17 03:58:42;;;;;;;41.20;27.13;;;2.30;95.70;;;;;;5035219;28;20017;-68
2024/01/17 04:01:10;;;;;;;29.50;20.08;;;2.30;96.00;;;;;;5034613;28;20359;-69
2024/01/17 04:03:35;;;;;;;27.60;18.98;;;2.30;96.20;;;;;;5034955;28;20030;-65
2024/01/17 04:06:02;;;;;;;24.95;17.67;;;2.30;95.90;;;;;;5035209;28;20033;-66
2024/01/17 04:08:28;;;;;;;21.38;15.25;;;2.20;95.90;;;;;;5035158;28;20041;-67
2024/01/17 04:10:54;;;;;;;20.92;14.75;;;2.20;96.20;;;;;;5035123;28;20028;-65
2024/01/17 04:13:20;;;;;;;19.23;15.13;;;2.20;96.20;;;;;;5035028;28;20105;-65
2024/01/17 04:15:46;;;;;;;16.25;12.13;;;2.20;96.40;;;;;;5035312;28;20087;-66
2024/01/17 04:18:11;;;;;;;19.85;14.98;;;2.20;96.40;;;;;;5034963;28;20480;-63
2024/01/17 04:20:37;;;;;;;22.67;15.88;;;2.20;96.30;;;;;;5034694;28;20054;-61
2024/01/17 04:23:06;;;;;;;47.22;31.48;;;2.20;96.60;;;;;;5034880;28;20065;-71
2024/01/17 04:25:32;;;;;;;32.55;22.38;;;2.10;97.80;;;;;;5034955;28;20021;-61
2024/01/17 04:27:58;;;;;;;28.90;20.15;;;2.00;98.30;;;;;;5035050;28;20029;-66
2024/01/17 04:30:24;;;;;;;31.45;21.30;;;2.10;98.60;;;;;;5034974;28;20471;-62
2024/01/17 04:32:49;;;;;;;25.40;17.83;;;2.20;98.30;;;;;;5034788;28;20475;-67
2024/01/17 04:35:20;;;;;;;42.83;29.73;;;2.30;98.20;;;;;;5034715;28;20022;-69
2024/01/17 04:37:46;;;;;;;38.95;26.08;;;2.40;97.60;;;;;;5034455;28;20032;-68
2024/01/17 04:40:12;;;;;;;37.40;25.13;;;2.30;98.00;;;;;;5034528;28;20108;-63
2024/01/17 04:42:38;;;;;;;36.92;26.00;;;2.30;98.20;;;;;;5034533;28;20037;-67
2024/01/17 04:45:04;;;;;;;36.70;25.52;;;2.30;98.00;;;;;;5034636;28;20442;-68
2024/01/17 04:47:31;;;;;;;34.70;23.27;;;2.40;97.80;;;;;;5034538;28;20079;-69
2024/01/17 04:49:56;;;;;;;38.10;27.10;;;2.40;97.90;;;;;;5034456;28;20026;-61
2024/01/17 04:52:22;;;;;;;46.03;32.17;;;2.50;97.80;;;;;;5034445;28;20026;-60
2024/01/17 04:54:51;;;;;;;36.53;24.48;;;2.40;97.30;;;;;;5034307;28;20024;-68
2024/01/17 04:57:16;;;;;;;36.15;24.60;;;2.40;97.80;;;;;;5034457;28;20440;-66
2024/01/17 04:59:42;;;;;;;31.17;22.63;;;2.40;97.90;;;;;;5034075;28;20045;-69
2024/01/17 05:02:09;;;;;;;34.22;22.70;;;2.50;97.80;;;;;;5032763;28;20025;-67
2024/01/17 05:04:35;;;;;;;39.00;27.48;;;2.50;97.80;;;;;;5034108;28;20072;-64
2024/01/17 05:07:00;;;;;;;32.17;22.40;;;2.60;97.40;;;;;;5033964;28;20029;-64
2024/01/17 05:09:26;;;;;;;29.05;21.08;;;2.60;97.90;;;;;;5034043;28;20074;-71
2024/01/17 05:11:52;;;;;;;37.22;25.63;;;2.70;97.40;;;;;;5034148;28;20499;-63
2024/01/17 05:14:18;;;;;;;28.33;20.92;;;2.70;97.00;;;;;;5033804;28;20513;-65
2024/01/17 05:16:43;;;;;;;31.13;22.60;;;2.70;97.30;;;;;;5033599;28;20036;-63
2024/01/17 05:19:09;;;;;;;38.55;27.33;;;2.70;97.10;;;;;;5033360;28;20107;-64
2024/01/17 05:21:35;;;;;;;39.70;26.75;;;2.80;96.50;;;;;;5033716;28;20502;-64
2024/01/17 05:24:00;;;;;;;34.03;23.83;;;2.80;96.30;;;;;;5033663;28;20494;-62
2024/01/17 05:26:26;;;;;;;37.70;24.60;;;2.80;96.50;;;;;;5033927;28;20026;-69
2024/01/17 05:28:52;;;;;;;31.40;22.58;;;2.80;96.60;;;;;;5033774;28;20546;-67
2024/01/17 05:31:18;;;;;;;28.95;21.08;;;2.80;96.50;;;;;;5033512;28;20021;-66
2024/01/17 05:33:44;;;;;;;33.63;23.40;;;2.80;96.50;;;;;;5033577;28;20029;-64
2024/01/17 05:36:11;;;;;;;28.50;20.33;;;2.80;96.50;;;;;;5033512;28;20018;-66
2024/01/17 05:38:37;;;;;;;27.27;19.73;;;2.80;96.80;;;;;;5033513;28;20113;-66
2024/01/17 05:41:03;;;;;;;23.95;17.55;;;2.90;97.00;;;;;;5033496;28;20048;-63
2024/01/17 05:43:29;;;;;;;23.50;15.95;;;2.90;96.90;;;;;;5033829;28;20025;-66
2024/01/17 05:45:57;;;;;;;23.10;15.65;;;2.90;96.90;;;;;;5033347;28;20029;-67
2024/01/17 05:48:24;;;;;;;21.05;16.48;;;2.90;96.80;;;;;;5033571;28;20067;-64
2024/01/17 05:50:50;;;;;;;24.45;17.13;;;2.90;96.40;;;;;;5033492;28;20048;-70
2024/01/17 05:53:16;;;;;;;26.50;18.42;;;2.90;96.50;;;;;;5033415;28;20035;-64
2024/01/17 05:55:42;;;;;;;23.60;16.35;;;2.90;96.60;;;;;;5033408;28;20021;-66
2024/01/17 05:58:09;;;;;;;24.92;17.17;;;3.00;96.80;;;;;;5033569;28;20021;-63
2024/01/17 06:00:35;;;;;;;22.20;16.15;;;3.10;96.50;;;;;;5033107;28;20021;-63
2024/01/17 06:03:00;;;;;;;25.42;17.75;;;3.10;96.70;;;;;;5033048;28;20476;-64
2024/01/17 06:05:26;;;;;;;29.63;20.25;;;3.10;96.50;;;;;;5033117;28;20551;-68
2024/01/17 06:07:52;;;;;;;31.73;23.00;;;3.10;96.60;;;;;;5033515;28;20025;-68
2024/01/17 06:10:17;;;;;;;40.38;27.70;;;3.10;97.10;;;;;;5033076;28;20457;-68
2024/01/17 06:12:43;;;;;;;34.08;24.63;;;2.90;97.90;;;;;;5031742;28;20022;-69
2024/01/17 06:15:11;;;;;;;27.80;20.48;;;2.90;98.30;;;;;;5032828;28;20037;-64
2024/01/17 06:17:37;;;;;;;34.25;22.63;;;3.00;98.20;;;;;;5033331;28;20108;-65
2024/01/17 06:20:03;;;;;;;24.17;18.27;;;3.00;98.00;;;;;;5032966;28;20084;-63
2024/01/17 06:22:29;;;;;;;24.58;18.52;;;3.10;98.10;;;;;;5033256;28;20029;-68
2024/01/17 06:24:55;;;;;;;22.38;16.42;;;3.20;97.90;;;;;;5037084;28;20101;-69
2024/01/17 06:27:22;;;;;;;28.13;20.60;;;3.20;97.80;;;;;;5037045;28;20549;-64
2024/01/17 06:29:47;;;;;;;25.55;18.50;;;3.30;97.40;;;;;;5037185;28;20030;-65
2024/01/17 06:32:13;;;;;;;21.92;16.00;;;3.20;97.50;;;;;;5037241;28;20083;-70
2024/01/17 06:34:39;;;;;;;25.67;19.00;;;3.20;97.80;;;;;;5036930;28;20022;-66
2024/01/17 06:37:05;;;;;;;25.73;17.98;;;3.30;98.00;;;;;;5036986;28;20017;-67
2024/01/17 06:39:32;;;;;;;34.97;24.13;;;3.40;97.60;;;;;;5037314;28;20400;-63
2024/01/17 06:41:58;;;;;;;28.27;19.08;;;3.40;97.70;;;;;;5036780;28;20036;-64
2024/01/17 06:44:24;;;;;;;25.10;18.77;;;3.30;98.00;;;;;;5036637;28;20032;-69
2024/01/17 06:46:50;;;;;;;23.48;16.77;;;3.40;98.70;;;;;;5036826;28;20014;-66
2024/01/17 06:49:15;;;;;;;29.23;20.38;;;3.50;97.80;;;;;;5036719;28;20387;-65
2024/01/17 06:51:41;;;;;;;35.50;26.20;;;3.60;97.10;;;;;;5036898;28;20075;-68
2024/01/17 06:54:09;;;;;;;62.80;46.38;;;3.70;96.40;;;;;;5036476;28;20037;-70
2024/01/17 06:56:36;;;;;;;59.83;43.92;;;3.70;95.90;;;;;;5036423;28;20112;-70
2024/01/17 06:59:02;;;;;;;62.50;43.78;;;3.60;96.40;;;;;;5036386;28;20025;-62
2024/01/17 07:01:27;;;;;;;53.08;37.88;;;3.60;96.70;;;;;;5036439;28;20468;-67
2024/01/17 07:03:53;;;;;;;60.78;42.00;;;3.60;96.60;;;;;;5036305;28;20025;-62
2024/01/17 07:06:19;;;;;;;68.47;49.15;;;3.70;96.50;;;;;;5036545;28;20026;-64
2024/01/17 07:08:45;;;;;;;52.03;38.47;;;3.80;96.70;;;;;;5036279;28;20141;-65
2024/01/17 07:11:10;;;;;;;51.15;36.67;;;3.80;96.40;;;;;;5036181;28;20376;-61
2024/01/17 07:13:38;;;;;;;78.43;58.85;;;3.90;95.90;;;;;;5036077;28;20033;-65
2024/01/17 07:16:04;;;;;;;54.55;40.22;;;4.00;95.00;;;;;;5036288;28;20472;-62
2024/01/17 07:18:30;;;;;;;63.10;44.75;;;4.10;95.10;;;;;;5036092;28;20021;-65
2024/01/17 07:20:56;;;;;;;59.78;44.22;;;4.20;94.70;;;;;;5035876;28;20027;-67
2024/01/17 07:23:21;;;;;;;63.67;45.85;;;4.30;94.30;;;;;;5035177;28;20337;-68
2024/01/17 07:25:47;;;;;;;65.50;48.00;;;4.40;94.00;;;;;;5038336;28;20060;-64
2024/01/17 07:28:19;;;;;;;65.25;47.08;;;4.40;93.30;;;;;;5046100;28;20025;-63
2024/01/17 07:30:44;;;;;;;65.53;47.63;;;4.40;93.70;;;;;;5045622;28;20022;-70
2024/01/17 07:33:10;;;;;;;63.78;46.25;;;4.50;93.80;;;;;;5044334;28;20029;-72
2024/01/17 07:35:36;;;;;;;50.67;39.70;;;4.60;93.80;;;;;;5042791;28;20021;-70
2024/01/17 07:38:02;;;;;;;53.60;40.22;;;4.70;93.60;;;;;;5044213;28;20021;-64
2024/01/17 07:40:28;;;;;;;53.05;39.15;;;4.80;93.00;;;;;;5045728;28;20029;-68
2024/01/17 07:42:54;;;;;;;46.90;35.67;;;5.00;92.40;;;;;;5044371;28;20124;-66
2024/01/17 07:45:21;;;;;;;42.00;32.97;;;5.10;92.90;;;;;;5044430;28;20028;-68
2024/01/17 07:47:47;;;;;;;48.83;35.42;;;5.10;92.40;;;;;;5044785;28;20270;-67
2024/01/17 07:50:13;;;;;;;39.92;31.70;;;5.10;92.40;;;;;;5046054;28;20029;-60
2024/01/17 07:52:38;;;;;;;39.97;33.03;;;5.20;92.00;;;;;;5055282;28;20029;-57
2024/01/17 07:55:05;;;;;;;39.05;31.10;;;5.20;92.20;;;;;;5055040;28;20104;-65
2024/01/17 07:57:30;;;;;;;36.95;31.52;;;5.30;92.40;;;;;;5043645;28;20063;-62
2024/01/17 07:59:56;;;;;;;46.50;34.58;;;5.40;92.00;;;;;;5045126;28;20482;-63
2024/01/17 08:02:22;;;;;;;49.53;37.35;;;5.70;91.80;;;;;;5045145;28;20107;-66
2024/01/17 08:04:53;;;;;;;51.25;36.67;;;6.50;89.10;;;;;;5043373;28;20387;-62
2024/01/17 08:07:24;;;;;;;46.38;35.50;;;6.70;81.00;;;;;;5044749;28;20029;-63
2024/01/17 08:09:53;;;;;;;44.83;33.35;;;6.70;80.50;;;;;;5045918;28;20036;-67
2024/01/17 08:12:19;;;;;;;48.47;36.78;;;6.70;80.00;;;;;;5044216;28;20514;-68
2024/01/17 08:14:48;;;;;;;83.80;60.42;;;6.70;77.60;;;;;;5048874;28;20029;-65
2024/01/17 08:17:14;;;;;;;101.88;71.72;;;6.60;77.80;;;;;;5043684;28;20107;-69
2024/01/17 08:19:40;;;;;;;130.20;95.40;;;6.60;78.10;;;;;;5043821;28;20096;-65
2024/01/17 08:22:06;;;;;;;143.43;106.10;;;6.50;77.60;;;;;;5044977;28;20029;-71
2024/01/17 08:24:33;;;;;;;105.57;77.82;;;6.40;78.80;;;;;;5045161;28;20033;-60
2024/01/17 08:26:59;;;;;;;108.10;81.22;;;6.30;79.70;;;;;;5043758;28;20025;-64
2024/01/17 08:29:26;;;;;;;105.32;80.47;;;6.20;80.40;;;;;;5048860;28;20083;-69
2024/01/17 08:31:52;;;;;;;92.75;70.30;;;6.10;81.50;;;;;;5054500;28;20067;-67
2024/01/17 08:34:20;;;;;;;83.45;64.00;;;6.00;84.50;;;;;;5054392;28;20033;-64
2024/01/17 08:36:47;;;;;;;94.97;70.28;;;5.80;86.20;;;;;;5054500;28;20029;-62
2024/01/17 08:39:12;;;;;;;92.03;69.97;;;5.80;88.90;;;;;;5054491;28;20475;-66
2024/01/17 08:41:41;;;;;;;87.18;65.63;;;5.70;89.10;;;;;;5054264;28;20060;-70
2024/01/17 08:44:07;;;;;;;81.75;64.25;;;5.50;90.30;;;;;;5054085;28;20506;-68
2024/01/17 08:46:32;;;;;;;77.05;57.38;;;5.50;90.90;;;;;;5053784;28;20029;-66
2024/01/17 08:48:58;;;;;;;94.88;68.85;;;5.50;91.20;;;;;;5054426;28;20041;-66
2024/01/17 08:51:24;;;;;;;86.78;64.82;;;5.60;91.50;;;;;;5053917;28;20024;-63
2024/01/17 08:53:50;;;;;;;69.30;54.78;;;5.60;91.10;;;;;;5054066;28;20036;-65
2024/01/17 08:56:16;;;;;;;82.15;59.00;;;5.50;91.50;;;;;;5053808;28;20068;-62
2024/01/17 08:58:42;;;;;;;73.70;57.97;;;5.60;91.20;;;;;;5053949;28;20056;-62
2024/01/17 09:01:09;;;;;;;71.68;53.20;;;5.70;91.10;;;;;;5054024;28;20021;-65
2024/01/17 09:03:36;;;;;;;114.07;80.78;;;5.80;91.00;;;;;;5050863;28;20026;-60
2024/01/17 09:06:02;;;;;;;84.30;64.45;;;5.90;90.70;;;;;;5044947;28;20033;-67
2024/01/17 09:08:27;;;;;;;101.53;73.75;;;6.00;91.40;;;;;;5043573;28;20490;-65
2024/01/17 09:10:54;;;;;;;111.18;83.07;;;6.10;90.10;;;;;;5043916;28;20388;-63
2024/01/17 09:13:19;;;;;;;114.95;83.60;;;6.30;90.40;;;;;;5041919;28;20055;-64
2024/01/17 09:15:45;;;;;;;83.60;65.72;;;6.30;90.20;;;;;;5043896;28;20441;-69
2024/01/17 09:18:11;;;;;;;84.85;65.80;;;6.50;92.10;;;;;;5043257;28;20031;-66
2024/01/17 09:20:37;;;;;;;81.70;62.45;;;6.60;92.10;;;;;;5041770;28;20056;-65
2024/01/17 09:23:03;;;;;;;91.57;70.43;;;6.80;90.90;;;;;;5044784;28;20025;-65
2024/01/17 09:25:30;;;;;;;85.70;66.82;;;7.00;91.70;;;;;;5053776;28;20407;-67
2024/01/17 09:27:56;;;;;;;78.90;64.78;;;7.20;90.30;;;;;;5041503;28;20032;-62
2024/01/17 09:30:21;;;;;;;94.55;76.40;;;7.40;90.20;;;;;;5043612;28;20391;-65
2024/01/17 09:32:47;;;;;;;82.68;66.00;;;7.60;90.30;;;;;;5045484;28;20041;-65
2024/01/17 09:35:14;;;;;;;86.05;66.63;;;7.70;89.50;;;;;;5042411;28;20049;-66
2024/01/17 09:37:40;;;;;;;75.03;62.33;;;8.20;87.90;;;;;;5043505;28;20024;-64
2024/01/17 09:40:08;;;;;;;83.05;66.72;;;8.60;85.40;;;;;;5042244;28;20388;-68
2024/01/17 09:42:34;;;;;;;96.75;79.20;;;9.10;79.20;;;;;;5042632;28;20017;-62
2024/01/17 09:45:00;;;;;;;101.93;79.40;;;9.60;68.90;;;;;;5044055;28;20044;-67
2024/01/17 09:47:27;;;;;;;85.88;71.95;;;9.70;74.20;;;;;;5042565;28;20025;-72
2024/01/17 09:49:52;;;;;;;118.60;95.57;;;10.00;73.90;;;;;;5042854;28;20033;-71
2024/01/17 09:52:22;;;;;;;94.22;82.03;;;10.10;63.80;;;;;;5043788;28;20108;-61
2024/01/17 09:54:51;;;;;;;97.22;80.78;;;10.10;63.40;;;;;;5042669;28;20033;-67
2024/01/17 09:57:25;;;;;;;104.78;86.78;;;10.20;62.70;;;;;;5041518;28;20040;-70
2024/01/17 10:00:00;;;;;;;212.00;158.02;;;10.30;63.90;;;;;;5042659;28;20033;-62
2024/01/17 10:02:27;;;;;;;180.70;140.90;;;10.10;61.30;;;;;;5041898;28;20029;-74
2024/01/17 10:04:55;;;;;;;209.07;156.80;;;9.80;62.60;;;;;;5042934;28;20022;-72
2024/01/17 10:07:20;;;;;;;202.70;157.35;;;9.70;66.30;;;;;;5043891;28;20379;-67
2024/01/17 10:09:46;;;;;;;201.02;156.02;;;9.50;67.40;;;;;;5042259;28;20029;-68
2024/01/17 10:12:13;;;;;;;212.27;162.43;;;9.50;70.20;;;;;;5042309;28;20021;-65
2024/01/17 10:14:41;;;;;;;209.50;163.32;;;9.40;71.30;;;;;;5043526;28;20091;-63
2024/01/17 10:17:07;;;;;;;192.13;148.98;;;9.40;75.30;;;;;;5041968;28;20029;-70
2024/01/17 10:19:35;;;;;;;171.25;136.15;;;9.50;77.10;;;;;;5041878;28;20106;-69
2024/01/17 10:22:04;;;;;;;191.82;143.15;;;9.60;78.70;;;;;;5043474;28;20053;-67
2024/01/17 10:24:35;;;;;;;156.48;122.35;;;9.70;77.30;;;;;;5042232;28;20071;-66
2024/01/17 10:27:04;;;;;;;137.40;107.43;;;9.80;78.60;;;;;;5041142;28;20109;-62
2024/01/17 10:29:31;;;;;;;120.03;98.00;;;9.70;77.50;;;;;;5042401;28;20024;-69
2024/01/17 10:31:59;;;;;;;160.73;123.25;;;9.70;80.90;;;;;;5043027;28;20025;-63
2024/01/17 10:34:29;;;;;;;171.52;123.93;;;9.70;79.80;;;;;;5050043;28;20537;-63
2024/01/17 10:36:55;;;;;;;150.45;112.82;;;9.70;80.40;;;;;;5043177;28;20472;-69
2024/01/17 10:39:22;;;;;;;221.65;163.52;;;9.80;78.90;;;;;;5032791;28;20021;-67
2024/01/17 10:41:59;;;;;;;200.05;148.30;;;9.90;80.20;;;;;;5032641;28;20046;-67
2024/01/17 10:44:25;;;;;;;193.35;148.25;;;9.80;81.20;;;;;;5032763;28;20464;-65
2024/01/17 10:46:52;;;;;;;182.55;141.32;;;9.80;78.40;;;;;;5032699;28;20065;-66
2024/01/17 10:49:22;;;;;;;185.15;138.07;;;9.80;80.30;;;;;;5032565;28;20105;-64
2024/01/17 10:52:02;;;;;;;204.27;151.00;;;10.00;82.90;;;;;;5032469;28;20052;-63
2024/01/17 10:54:45;;;;;;;211.73;159.30;;;10.00;79.70;;;;;;5032795;28;20080;-67
2024/01/17 10:57:13;;;;;;;270.93;207.80;;;10.00;80.70;;;;;;5032398;28;20022;-68
2024/01/17 10:59:46;;;;;;;225.02;175.52;;;10.10;80.10;;;;;;5032460;28;20025;-64
2024/01/17 11:02:22;;;;;;;211.20;162.13;;;10.00;81.00;;;;;;5032715;28;20105;-64
2024/01/17 11:05:04;;;;;;;228.65;178.55;;;10.10;79.60;;;;;;5032653;28;20026;-69
2024/01/17 11:07:32;;;;;;;252.40;196.65;;;10.20;79.80;;;;;;5032399;28;20026;-65
2024/01/17 11:10:02;;;;;;;239.68;187.77;;;10.20;78.40;;;;;;5034753;28;20033;-65
2024/01/17 11:12:31;;;;;;;283.05;223.38;;;10.30;79.90;;;;;;5035718;28;20022;-63
2024/01/17 11:14:59;;;;;;;254.35;206.10;;;10.30;81.40;;;;;;5035887;28;20480;-64
2024/01/17 11:17:28;;;;;;;223.35;183.43;;;10.30;84.10;;;;;;5035845;28;20025;-63
2024/01/17 11:19:55;;;;;;;205.07;165.88;;;10.30;86.20;;;;;;5035268;28;20049;-62
2024/01/17 11:22:21;;;;;;;186.57;149.82;;;10.40;83.40;;;;;;5035888;28;20014;-61
2024/01/17 11:24:53;;;;;;;186.55;146.80;;;10.50;84.90;;;;;;5035867;28;20031;-63
2024/01/17 11:27:27;;;;;;;200.82;165.45;;;10.50;85.00;;;;;;5041015;28;20387;-67
2024/01/17 11:30:18;;;;;;;225.32;186.10;;;10.60;88.90;;;;;;5045051;28;20479;-62
2024/01/17 11:32:50;;;;;;;225.23;188.90;;;10.40;87.50;;;;;;5044223;28;20162;-69
2024/01/17 11:35:44;;;;;;;204.35;171.60;;;10.20;91.00;;;;;;5043873;28;20067;-64
2024/01/17 11:38:25;;;;;;;182.05;154.13;;;10.20;91.70;;;;;;5038920;28;20029;-69
2024/01/17 11:41:05;;;;;;;161.05;135.90;;;10.40;93.70;;;;;;5041678;28;20035;-64
2024/01/17 11:43:35;;;;;;;204.80;170.48;;;10.70;91.20;;;;;;5041138;28;20076;-65
2024/01/17 11:46:04;;;;;;;201.23;169.20;;;10.80;89.60;;;;;;5043237;28;20108;-64
2024/01/17 11:48:31;;;;;;;229.02;189.65;;;10.70;90.70;;;;;;5045703;28;20105;-63
2024/01/17 11:51:00;;;;;;;212.70;177.88;;;10.70;89.20;;;;;;5043521;28;20032;-66
2024/01/17 11:53:30;;;;;;;216.57;175.07;;;10.60;91.00;;;;;;5044836;28;20104;-63
2024/01/17 11:56:03;;;;;;;213.68;172.65;;;10.70;90.90;;;;;;5043626;28;20064;-62
2024/01/17 11:58:42;;;;;;;278.67;232.82;;;10.70;90.00;;;;;;5044090;28;20483;-67
2024/01/17 12:01:12;;;;;;;240.35;196.40;;;10.70;90.70;;;;;;5042171;28;20025;-65
2024/01/17 12:03:38;;;;;;;250.73;210.40;;;10.70;92.50;;;;;;5041163;28;20556;-63
2024/01/17 12:06:04;;;;;;;224.60;188.52;;;10.80;90.80;;;;;;5043942;28;20021;-66
2024/01/17 12:08:30;;;;;;;204.05;171.13;;;10.80;91.10;;;;;;5044546;28;20442;-66
2024/01/17 12:10:56;;;;;;;234.02;198.90;;;11.00;88.20;;;;;;5047918;28;20029;-66
2024/01/17 12:13:24;;;;;;;269.08;226.18;;;11.10;90.40;;;;;;5054652;28;20033;-64
2024/01/17 12:16:00;;;;;;;269.90;218.63;;;11.10;91.50;;;;;;5054720;28;20471;-66
2024/01/17 12:18:26;;;;;;;239.82;203.82;;;11.30;92.10;;;;;;5054572;28;20029;-64
2024/01/17 12:20:56;;;;;;;231.80;190.38;;;11.50;92.60;;;;;;5053548;28;20075;-60
2024/01/17 12:23:24;;;;;;;221.30;189.25;;;11.70;91.10;;;;;;5054696;28;20468;-67
2024/01/17 12:25:52;;;;;;;200.75;166.57;;;11.90;90.90;;;;;;5054513;28;20537;-64
2024/01/17 12:28:22;;;;;;;181.05;152.13;;;12.10;85.10;;;;;;5054356;28;20021;-63
2024/01/17 12:31:02;;;;;;;170.77;145.18;;;12.30;84.90;;;;;;5054719;28;20055;-65